Time;durP1;ratioP1;P1;durP2;ratioP2;P2;SDS_P1;SDS_P2;PMS_P1;PMS_P2;Temp;Humidity;BMP_temperature;BMP_pressure;BME280_temperature;BME280_humidity;BME280_pressure;Samples;Min_cycle;Max_cycle;Signal;HPM_P1;HPM_P2
2023/03/19 00:02:20;;;;;;;12.00;6.50;;;;;;;8.50;99.39;100816.31;4994084;28;20493;-82
2023/03/19 00:04:47;;;;;;;17.93;6.80;;;;;;;8.55;99.07;100816.28;4995259;28;20504;-81
2023/03/19 00:07:15;;;;;;;13.47;6.57;;;;;;;8.55;98.39;100814.38;4993016;28;20838;-82
2023/03/19 00:09:42;;;;;;;12.97;5.70;;;;;;;8.56;97.90;100812.50;4990260;28;20563;-83
2023/03/19 00:12:10;;;;;;;17.00;7.20;;;;;;;8.54;97.50;100810.09;5002328;28;20516;-83
2023/03/19 00:14:38;;;;;;;16.13;6.90;;;;;;;8.49;96.74;100802.00;5006635;28;20476;-83
2023/03/19 00:17:06;;;;;;;13.27;6.03;;;;;;;8.45;95.68;100814.44;5011736;28;20519;-83
2023/03/19 00:19:32;;;;;;;13.77;5.53;;;;;;;8.48;94.69;100807.69;5019296;28;20457;-85
2023/03/19 00:21:59;;;;;;;14.00;5.40;;;;;;;8.40;94.25;100813.69;5019225;28;20485;-82
2023/03/19 00:24:26;;;;;;;17.87;6.80;;;;;;;8.48;93.44;100818.50;5000609;28;20503;-82
2023/03/19 00:26:53;;;;;;;15.30;6.83;;;;;;;8.44;93.74;100822.84;4995818;28;20556;-82
2023/03/19 00:29:20;;;;;;;15.53;6.70;;;;;;;8.35;92.86;100809.91;4995052;28;20491;-80
2023/03/19 00:31:48;;;;;;;13.77;6.37;;;;;;;8.32;93.07;100815.88;4995840;28;20515;-80
2023/03/19 00:34:17;;;;;;;15.17;7.20;;;;;;;8.33;94.05;100814.78;5000555;28;20488;-80
2023/03/19 00:36:43;;;;;;;16.37;7.70;;;;;;;8.23;94.69;100803.22;5000705;28;20560;-80
2023/03/19 00:39:10;;;;;;;15.37;6.27;;;;;;;8.27;94.91;100810.50;4998243;28;20837;-79
2023/03/19 00:41:37;;;;;;;10.60;6.27;;;;;;;8.21;95.82;100808.13;5002750;28;20547;-80
2023/03/19 00:44:05;;;;;;;16.93;6.97;;;;;;;8.26;96.01;100805.38;4998315;28;20465;-80
2023/03/19 00:46:32;;;;;;;18.37;7.40;;;;;;;8.21;96.54;100808.13;4996921;28;20457;-81
2023/03/19 00:49:00;;;;;;;10.83;5.93;;;;;;;8.21;96.61;100806.22;4994784;28;20536;-81
2023/03/19 00:51:27;;;;;;;10.30;4.90;;;;;;;8.16;96.57;100808.97;4995254;28;20465;-82
2023/03/19 00:53:54;;;;;;;11.57;5.63;;;;;;;8.13;96.98;100806.81;4999560;28;20449;-81
2023/03/19 00:56:21;;;;;;;12.80;5.97;;;;;;;8.13;96.89;100809.50;5002736;28;20516;-82
2023/03/19 00:58:47;;;;;;;13.90;5.50;;;;;;;8.09;96.95;100803.06;5002316;28;20524;-82
2023/03/19 01:01:17;;;;;;;13.90;6.80;;;;;;;8.10;97.06;100810.06;5000332;28;20539;-82
2023/03/19 01:03:44;;;;;;;14.27;6.10;;;;;;;8.07;97.26;100822.22;5002050;28;21016;-82
2023/03/19 01:06:13;;;;;;;17.07;5.93;;;;;;;8.04;97.32;100822.78;5002763;28;20894;-81
2023/03/19 01:08:40;;;;;;;13.20;5.83;;;;;;;8.03;97.28;100817.66;5002999;28;21062;-82
2023/03/19 01:11:08;;;;;;;13.50;6.40;;;;;;;7.99;97.58;100819.31;5003430;28;20542;-82
2023/03/19 01:13:35;;;;;;;17.03;7.13;;;;;;;7.96;96.62;100817.94;4999276;28;20457;-82
2023/03/19 01:16:03;;;;;;;15.43;5.60;;;;;;;7.95;95.90;100827.13;4999626;28;20520;-82
2023/03/19 01:18:30;;;;;;;19.70;6.97;;;;;;;7.82;95.25;100819.66;4999730;28;20477;-83
2023/03/19 01:20:57;;;;;;;12.83;4.80;;;;;;;7.83;94.46;100824.78;5000451;28;20476;-82
2023/03/19 01:41:43;;;;;;;10.93;5.10;;;;;;;7.63;94.77;100835.63;4750225;29;20521;-83
2023/03/19 01:44:24;;;;;;;15.50;6.60;;;;;;;7.67;95.39;100839.41;4824392;29;20214;-81
2023/03/19 01:46:51;;;;;;;14.03;6.00;;;;;;;7.66;96.26;100828.88;4807643;29;20490;-81
2023/03/19 01:49:19;;;;;;;14.67;6.90;;;;;;;7.64;96.84;100829.16;4792906;29;20528;-81
2023/03/19 01:51:47;;;;;;;12.53;5.83;;;;;;;7.69;96.39;100837.22;4806180;29;20462;-82
2023/03/19 01:54:17;;;;;;;14.00;5.70;;;;;;;7.64;97.12;100837.25;4809804;29;20581;-82
2023/03/19 01:59:33;;;;;;;11.20;5.13;;;;;;;7.70;97.38;100830.78;4809175;29;20489;-82
2023/03/19 02:02:04;;;;;;;14.73;6.20;;;;;;;7.69;97.61;100834.53;4900975;29;20499;-82
2023/03/19 02:04:33;;;;;;;13.50;6.30;;;;;;;7.66;98.01;100832.41;4939155;29;20591;-82
2023/03/19 02:07:02;;;;;;;12.10;5.87;;;;;;;7.75;98.03;100828.06;4952727;28;20462;-82
2023/03/19 02:09:29;;;;;;;16.93;6.97;;;;;;;7.78;97.79;100830.16;4991620;28;20532;-80
2023/03/19 02:11:58;;;;;;;15.77;6.33;;;;;;;7.86;97.77;100822.59;4986682;28;20469;-80
2023/03/19 02:14:25;;;;;;;17.53;6.17;;;;;;;7.94;97.53;100819.34;4994519;28;20540;-80
2023/03/19 02:16:53;;;;;;;14.53;6.50;;;;;;;7.92;97.82;100816.09;4995042;28;20548;-80
2023/03/19 02:19:31;;;;;;;14.63;6.27;;;;;;;7.96;97.89;100801.78;4996827;28;20474;-80
2023/03/19 02:22:00;;;;;;;16.20;5.90;;;;;;;8.03;97.56;100799.59;4995190;28;20472;-82
2023/03/19 02:24:33;;;;;;;13.60;6.57;;;;;;;8.08;96.85;100806.84;4996428;28;20465;-80
2023/03/19 02:27:02;;;;;;;15.07;6.60;;;;;;;8.08;96.50;100825.72;4996030;28;20487;-80
2023/03/19 02:29:29;;;;;;;13.80;5.97;;;;;;;8.02;96.43;100813.34;4996226;28;20491;-80
2023/03/19 02:31:55;;;;;;;14.00;6.20;;;;;;;8.06;95.03;100806.31;4994340;28;20977;-80
2023/03/19 02:34:34;;;;;;;15.33;5.70;;;;;;;8.07;94.39;100824.13;4993800;28;20489;-80
2023/03/19 02:37:06;;;;;;;16.53;6.53;;;;;;;8.03;94.25;100821.16;4996154;28;20485;-80
2023/03/19 02:39:39;;;;;;;15.73;6.50;;;;;;;8.06;92.93;100814.41;4995362;28;21015;-80
2023/03/19 02:42:10;;;;;;;10.57;5.73;;;;;;;8.04;92.80;100813.88;4991345;28;20449;-80
2023/03/19 02:44:37;;;;;;;15.67;7.83;;;;;;;8.10;92.43;100807.34;4992231;28;20548;-80
2023/03/19 02:47:04;;;;;;;13.03;6.10;;;;;;;8.11;92.26;100809.00;4991430;28;20879;-80
2023/03/19 02:49:31;;;;;;;12.30;6.57;;;;;;;8.16;92.66;100814.34;4996995;28;20496;-80
2023/03/19 02:51:57;;;;;;;18.57;8.90;;;;;;;8.20;92.96;100811.91;4997568;28;20892;-79
2023/03/19 03:01:06;;;;;;;24.47;7.93;;;;;;;8.37;93.62;100798.88;4861574;29;21113;-79
2023/03/19 03:03:33;;;;;;;16.37;7.13;;;;;;;8.43;94.05;100810.44;4896327;29;20497;-79
2023/03/19 03:05:59;;;;;;;23.20;7.00;;;;;;;8.46;93.81;100805.28;4892458;29;20491;-80
2023/03/19 03:08:27;;;;;;;13.63;6.77;;;;;;;8.52;93.77;100808.75;4886491;29;20564;-80
2023/03/19 03:10:53;;;;;;;17.33;6.83;;;;;;;8.53;94.50;100815.75;4897639;29;20617;-80
2023/03/19 03:13:20;;;;;;;18.17;8.13;;;;;;;8.57;94.16;100803.31;4898513;29;20470;-80
2023/03/19 03:15:47;;;;;;;24.63;7.70;;;;;;;8.58;93.94;100819.22;4890074;29;20504;-80
2023/03/19 03:18:15;;;;;;;18.80;8.03;;;;;;;8.63;93.85;100823.75;4897780;29;20478;-82
2023/03/19 03:20:42;;;;;;;16.80;7.13;;;;;;;8.67;93.81;100859.91;4880262;29;20470;-80
2023/03/19 03:23:08;;;;;;;14.70;7.50;;;;;;;8.65;93.61;100867.50;4892097;29;20893;-82
2023/03/19 03:25:35;;;;;;;16.07;7.10;;;;;;;8.73;93.58;100844.50;4896536;29;20465;-80
2023/03/19 03:28:02;;;;;;;13.20;7.07;;;;;;;8.83;93.02;100842.50;4897863;29;20545;-81
2023/03/19 03:30:29;;;;;;;14.80;7.47;;;;;;;8.88;93.01;100867.88;4885618;29;20557;-80
2023/03/19 03:32:55;;;;;;;18.53;8.70;;;;;;;8.94;92.17;100855.94;4893262;29;20473;-80
2023/03/19 03:35:24;;;;;;;14.63;7.70;;;;;;;8.94;91.35;100874.84;4897556;29;20501;-80
2023/03/19 03:37:51;;;;;;;15.33;7.00;;;;;;;8.91;91.42;100870.03;4897690;29;20497;-81
2023/03/19 03:40:18;;;;;;;19.93;7.10;;;;;;;8.86;90.67;100864.66;4898889;29;20550;-81
2023/03/19 03:42:45;;;;;;;19.13;8.00;;;;;;;8.82;90.45;100857.13;4901497;29;20473;-80
2023/03/19 03:45:12;;;;;;;16.13;7.17;;;;;;;8.80;90.09;100853.88;4892045;29;21047;-80
2023/03/19 03:47:39;;;;;;;13.57;7.27;;;;;;;8.77;90.39;100870.66;4895145;29;20481;-80
2023/03/19 03:50:13;;;;;;;15.47;7.40;;;;;;;8.75;91.27;100878.22;4897941;28;20446;-80
2023/03/19 03:52:49;;;;;;;14.70;7.57;;;;;;;8.76;90.51;100863.63;5001501;28;20816;-81
2023/03/19 03:59:00;;;;;;;23.13;7.43;;;;;;;8.81;90.07;100870.91;5001651;28;20476;-82
2023/03/19 04:01:35;;;;;;;13.20;6.70;;;;;;;8.81;91.37;100871.72;5002495;28;20443;-81
2023/03/19 04:04:19;;;;;;;16.80;7.43;;;;;;;8.80;91.85;100858.47;5004209;28;20507;-81
2023/03/19 04:06:59;;;;;;;16.20;8.20;;;;;;;8.78;92.71;100861.47;5001305;28;20456;-81
2023/03/19 04:16:58;;;;;;;15.73;7.03;;;;;;;8.77;98.59;100867.97;4897873;29;20472;-81
2023/03/19 04:19:26;;;;;;;12.43;6.50;;;;;;;8.81;100.00;100879.00;4909652;29;20540;-80
2023/03/19 04:21:53;;;;;;;13.90;7.00;;;;;;;8.74;100.00;100878.50;4896768;29;20462;-80
2023/03/19 04:24:20;;;;;;;19.87;8.73;;;;;;;8.67;100.00;100884.22;4890239;29;20530;-79
2023/03/19 04:26:48;;;;;;;16.87;8.60;;;;;;;8.46;100.00;100878.16;4896716;29;20525;-79
2023/03/19 04:29:15;;;;;;;15.07;7.93;;;;;;;8.50;100.00;100864.91;4896066;29;20474;-79
2023/03/19 04:31:44;;;;;;;17.23;7.40;;;;;;;8.51;100.00;100880.03;4886504;29;20462;-79
2023/03/19 04:34:11;;;;;;;18.70;9.23;;;;;;;8.50;100.00;100892.72;4886363;29;20674;-79
2023/03/19 04:36:38;;;;;;;19.90;8.90;;;;;;;8.51;100.00;100909.72;4905529;28;20531;-79
2023/03/19 04:39:05;;;;;;;15.70;7.77;;;;;;;8.54;100.00;100903.75;4992612;28;20488;-80
2023/03/19 04:41:32;;;;;;;20.17;8.40;;;;;;;8.48;100.00;100910.28;4998198;28;20548;-81
2023/03/19 04:43:59;;;;;;;15.07;7.67;;;;;;;8.52;100.00;100916.72;4997779;28;20452;-80
2023/03/19 04:46:25;;;;;;;18.90;8.60;;;;;;;8.53;100.00;100918.34;4997582;28;20532;-80
2023/03/19 04:48:54;;;;;;;19.70;8.07;;;;;;;8.55;100.00;100916.19;4997551;28;20572;-79
2023/03/19 04:51:21;;;;;;;14.90;7.50;;;;;;;8.55;100.00;100918.88;4997139;28;20457;-80
2023/03/19 04:53:48;;;;;;;16.87;8.70;;;;;;;8.55;100.00;100919.69;4991380;28;20489;-80
2023/03/19 04:56:16;;;;;;;18.20;8.87;;;;;;;8.58;100.00;100915.59;4996455;28;20516;-80
2023/03/19 04:58:43;;;;;;;21.20;9.93;;;;;;;8.59;100.00;100914.53;4997218;28;20473;-80
2023/03/19 05:01:10;;;;;;;14.30;8.30;;;;;;;8.55;100.00;100914.28;4996799;28;20449;-80
2023/03/19 05:03:37;;;;;;;20.37;9.47;;;;;;;8.44;100.00;100909.22;4997050;28;20457;-79
2023/03/19 05:06:05;;;;;;;18.87;8.93;;;;;;;8.42;100.00;100917.59;4997755;28;20451;-79
2023/03/19 05:08:32;;;;;;;19.10;7.60;;;;;;;8.46;100.00;100907.06;4997341;28;20532;-80
2023/03/19 05:10:59;;;;;;;17.73;7.70;;;;;;;8.48;100.00;100907.56;4997674;28;20515;-80
2023/03/19 05:13:26;;;;;;;18.27;8.10;;;;;;;8.38;100.00;100899.53;4997534;28;20449;-80
2023/03/19 05:15:54;;;;;;;18.40;8.73;;;;;;;8.17;100.00;100885.31;4997155;28;20535;-79
2023/03/19 05:18:21;;;;;;;17.73;9.20;;;;;;;8.14;100.00;100877.75;4996843;28;21018;-80
2023/03/19 05:20:48;;;;;;;21.77;8.33;;;;;;;8.19;100.00;100870.47;4996518;28;20471;-80
2023/03/19 05:23:16;;;;;;;17.50;8.73;;;;;;;8.25;100.00;100865.84;4996372;28;20812;-80
2023/03/19 05:25:43;;;;;;;18.10;8.27;;;;;;;8.31;100.00;100860.13;4996417;28;20449;-79
2023/03/19 05:28:10;;;;;;;19.53;9.30;;;;;;;8.37;100.00;100884.41;4996184;28;20547;-80
2023/03/19 05:30:36;;;;;;;18.03;7.70;;;;;;;8.37;100.00;100876.31;4996432;28;20453;-79
2023/03/19 05:33:03;;;;;;;17.27;8.80;;;;;;;8.39;100.00;100874.97;4996385;28;20816;-79
2023/03/19 05:35:30;;;;;;;20.90;8.70;;;;;;;8.42;100.00;100862.81;4996280;28;20888;-80
2023/03/19 05:37:58;;;;;;;19.50;9.07;;;;;;;8.44;100.00;100861.44;4996029;28;20563;-80
2023/03/19 05:40:26;;;;;;;17.13;9.40;;;;;;;8.43;100.00;100851.72;4996038;28;20445;-80
2023/03/19 05:42:52;;;;;;;20.57;8.97;;;;;;;8.40;100.00;100840.66;4995806;28;20859;-80
2023/03/19 05:45:19;;;;;;;19.97;8.80;;;;;;;8.43;100.00;100848.22;5003487;28;20445;-79
2023/03/19 05:47:48;;;;;;;19.47;8.93;;;;;;;8.46;100.00;100847.66;5014014;28;20441;-79
2023/03/19 05:50:16;;;;;;;16.90;8.60;;;;;;;8.56;100.00;100839.50;5014343;28;20444;-80
2023/03/19 05:52:42;;;;;;;20.63;9.87;;;;;;;8.62;100.00;100835.66;5005997;28;20484;-80
2023/03/19 05:55:09;;;;;;;23.50;10.50;;;;;;;8.62;100.00;100840.25;4996457;28;20480;-79
2023/03/19 05:57:37;;;;;;;20.33;10.57;;;;;;;8.62;100.00;100841.06;4993529;28;20572;-80
2023/03/19 06:00:08;;;;;;;21.33;8.67;;;;;;;8.64;100.00;100838.09;4995633;28;20536;-80
2023/03/19 06:02:36;;;;;;;16.00;8.57;;;;;;;8.63;100.00;100842.66;4996156;28;20528;-80
2023/03/19 06:05:02;;;;;;;17.30;9.33;;;;;;;8.66;100.00;100849.41;4996003;28;20548;-80
2023/03/19 06:07:29;;;;;;;25.70;10.70;;;;;;;8.62;100.00;100835.66;4995155;28;20468;-80
2023/03/19 06:09:56;;;;;;;19.10;8.50;;;;;;;8.71;100.00;100846.66;4995624;28;20433;-79
2023/03/19 06:12:23;;;;;;;15.83;8.93;;;;;;;8.72;100.00;100840.16;4995536;28;20441;-79
2023/03/19 06:14:51;;;;;;;18.57;9.97;;;;;;;8.74;100.00;100844.22;5005063;28;20480;-80
2023/03/19 06:17:18;;;;;;;20.93;9.07;;;;;;;8.82;100.00;100832.81;4986993;28;20495;-80
2023/03/19 06:19:45;;;;;;;15.17;8.60;;;;;;;8.93;100.00;100841.63;4992390;28;20480;-80
2023/03/19 06:22:12;;;;;;;17.33;8.43;;;;;;;9.04;100.00;100837.75;4996515;28;20981;-79
2023/03/19 06:24:38;;;;;;;22.33;8.23;;;;;;;9.16;100.00;100840.06;4996208;28;20487;-79
2023/03/19 06:27:05;;;;;;;18.33;9.00;;;;;;;9.29;100.00;100839.38;5014137;28;20444;-80
2023/03/19 06:29:32;;;;;;;24.53;9.10;;;;;;;9.37;100.00;100861.50;5015074;28;21032;-79
2023/03/19 06:32:00;;;;;;;16.93;8.43;;;;;;;9.39;100.00;100897.97;5016701;28;20523;-80
2023/03/19 06:34:27;;;;;;;21.43;9.43;;;;;;;9.38;100.00;100946.91;4999482;28;20433;-79
2023/03/19 06:36:54;;;;;;;18.00;8.90;;;;;;;9.32;100.00;100968.56;4996385;28;20858;-80
2023/03/19 06:39:21;;;;;;;18.57;9.03;;;;;;;9.34;100.00;100939.38;4995434;28;20479;-80
2023/03/19 06:41:48;;;;;;;18.40;9.23;;;;;;;9.27;100.00;100916.47;4994928;28;20540;-79
2023/03/19 06:44:15;;;;;;;16.83;7.80;;;;;;;9.30;100.00;100910.50;4995488;28;20583;-78
2023/03/19 06:46:41;;;;;;;16.00;7.70;;;;;;;9.28;100.00;100954.00;4994803;28;20859;-78
2023/03/19 06:49:09;;;;;;;18.43;10.00;;;;;;;9.26;100.00;100948.09;4994337;28;20486;-77
2023/03/19 06:51:36;;;;;;;14.10;7.17;;;;;;;9.25;100.00;100957.28;4995170;28;20463;-78
2023/03/19 06:54:03;;;;;;;16.20;8.43;;;;;;;9.17;100.00;100979.53;4995169;28;20480;-77
2023/03/19 06:56:29;;;;;;;17.87;8.77;;;;;;;9.13;100.00;100999.28;4994972;28;20439;-77
2023/03/19 06:58:56;;;;;;;13.90;7.60;;;;;;;9.05;100.00;101015.00;5000991;28;20580;-78
2023/03/19 07:01:23;;;;;;;20.40;8.20;;;;;;;9.01;100.00;101010.41;5003257;28;20452;-78
2023/03/19 07:03:49;;;;;;;17.73;8.80;;;;;;;8.97;100.00;101028.28;5005283;28;20483;-79
2023/03/19 07:06:17;;;;;;;22.70;10.10;;;;;;;8.92;100.00;101014.81;5004096;28;20527;-78
2023/03/19 07:08:45;;;;;;;19.53;9.50;;;;;;;8.86;100.00;100997.81;5001983;28;20492;-80
2023/03/19 07:11:12;;;;;;;20.83;7.20;;;;;;;8.86;100.00;100987.03;5005270;28;20500;-78
2023/03/19 07:13:38;;;;;;;19.20;8.17;;;;;;;8.87;100.00;100985.13;5000766;28;20893;-78
2023/03/19 07:16:06;;;;;;;15.47;8.00;;;;;;;8.87;100.00;100985.13;4997765;28;20476;-78
2023/03/19 07:18:32;;;;;;;16.30;8.13;;;;;;;8.89;100.00;100991.03;4999085;28;20492;-78
2023/03/19 07:20:59;;;;;;;14.90;8.30;;;;;;;8.89;100.00;100972.94;5007059;28;20518;-78
2023/03/19 07:23:27;;;;;;;19.37;9.03;;;;;;;8.87;100.00;100956.22;4998928;28;20563;-78
2023/03/19 07:25:53;;;;;;;18.17;8.20;;;;;;;8.82;100.00;100946.25;5001168;28;20567;-78
2023/03/19 07:28:20;;;;;;;27.07;8.50;;;;;;;8.81;100.00;100935.72;4999904;28;20476;-78
2023/03/19 07:30:47;;;;;;;18.07;7.97;;;;;;;8.86;100.00;100930.28;5001102;28;20457;-78
2023/03/19 07:33:14;;;;;;;15.83;9.03;;;;;;;8.93;100.00;100929.97;5001425;28;20433;-78
2023/03/19 07:35:40;;;;;;;20.03;8.87;;;;;;;9.00;100.00;100930.47;5008785;28;20440;-78
2023/03/19 07:38:07;;;;;;;19.00;8.30;;;;;;;9.06;100.00;100926.63;5020478;28;20497;-78
2023/03/19 07:40:35;;;;;;;24.20;9.90;;;;;;;9.13;100.00;100927.13;5003508;28;20871;-78
2023/03/19 07:43:02;;;;;;;18.63;9.90;;;;;;;9.26;100.00;100928.38;5002668;28;20511;-79
2023/03/19 07:45:29;;;;;;;18.70;8.60;;;;;;;9.41;100.00;100930.13;4999666;28;20452;-80
2023/03/19 07:47:55;;;;;;;19.27;10.43;;;;;;;9.52;100.00;100924.34;5002942;28;20496;-79
2023/03/19 07:50:22;;;;;;;17.87;9.93;;;;;;;9.61;100.00;100927.22;5001790;28;20877;-79
2023/03/19 07:52:50;;;;;;;19.87;9.80;;;;;;;9.72;100.00;100927.91;4995656;28;20471;-79
2023/03/19 07:55:17;;;;;;;19.70;10.07;;;;;;;9.84;100.00;100939.97;4985900;28;20520;-78
2023/03/19 07:57:45;;;;;;;19.23;8.70;;;;;;;9.95;100.00;100940.63;4995719;28;20485;-79
2023/03/19 08:00:13;;;;;;;15.67;8.43;;;;;;;10.03;100.00;100940.00;4988664;28;20915;-78
2023/03/19 08:02:41;;;;;;;24.53;11.00;;;;;;;10.08;100.00;100949.97;4997666;28;20504;-78
2023/03/19 08:05:08;;;;;;;24.70;9.40;;;;;;;10.03;100.00;100960.84;4998093;28;20511;-79
2023/03/19 08:07:35;;;;;;;19.77;10.20;;;;;;;9.96;100.00;100976.63;4993597;28;20507;-82
2023/03/19 08:10:02;;;;;;;16.43;8.10;;;;;;;9.94;100.00;100985.03;4998893;28;20484;-80
2023/03/19 08:12:30;;;;;;;20.47;9.20;;;;;;;9.90;100.00;101000.22;5004550;28;20496;-80
2023/03/19 08:14:58;;;;;;;17.17;8.50;;;;;;;9.89;100.00;100997.81;5005534;28;20465;-80
2023/03/19 08:17:26;;;;;;;23.13;7.90;;;;;;;9.88;100.00;101001.63;5005047;28;20475;-81
2023/03/19 08:19:52;;;;;;;14.47;7.13;;;;;;;9.89;100.00;101004.03;5006624;28;20863;-80
2023/03/19 08:22:19;;;;;;;18.73;8.87;;;;;;;9.89;100.00;100992.41;5011783;28;20487;-80
2023/03/19 08:24:45;;;;;;;19.33;8.77;;;;;;;9.91;100.00;100977.47;5008251;28;20488;-80
2023/03/19 08:27:12;;;;;;;21.20;8.27;;;;;;;9.94;100.00;100989.66;5002601;28;20497;-81
2023/03/19 08:29:39;;;;;;;17.33;7.77;;;;;;;9.97;100.00;101016.16;5002774;28;20487;-81
2023/03/19 08:32:08;;;;;;;18.33;8.17;;;;;;;9.93;100.00;101007.78;5012470;28;20465;-80
2023/03/19 08:34:35;;;;;;;15.90;8.57;;;;;;;9.95;100.00;101002.88;5016473;28;20461;-80
2023/03/19 08:37:02;;;;;;;17.93;8.33;;;;;;;9.99;100.00;100987.69;5014203;28;20453;-79
2023/03/19 08:39:29;;;;;;;16.63;8.27;;;;;;;10.03;100.00;100982.50;4997674;28;20474;-78
2023/03/19 08:41:56;;;;;;;16.70;9.07;;;;;;;10.09;100.00;100978.66;4996102;28;20504;-78
2023/03/19 08:44:23;;;;;;;19.00;8.30;;;;;;;10.16;100.00;100975.59;4995627;28;20472;-78
2023/03/19 08:46:50;;;;;;;19.20;8.50;;;;;;;10.19;100.00;100992.09;4990673;28;20979;-80
2023/03/19 08:49:18;;;;;;;30.20;9.50;;;;;;;10.24;100.00;101004.75;4992844;28;20477;-77
2023/03/19 08:51:44;;;;;;;19.10;8.87;;;;;;;10.24;100.00;101011.00;5012013;28;20455;-78
2023/03/19 08:54:12;;;;;;;17.60;10.17;;;;;;;10.21;100.00;101006.13;5020754;28;20455;-78
2023/03/19 08:56:39;;;;;;;17.03;8.03;;;;;;;10.14;100.00;100994.03;5019087;28;20448;-78
2023/03/19 08:59:06;;;;;;;23.83;10.87;;;;;;;10.13;100.00;100997.81;5017956;28;20512;-78
2023/03/19 09:01:33;;;;;;;17.73;8.90;;;;;;;10.03;100.00;100982.50;5020235;28;20448;-78
2023/03/19 09:04:00;;;;;;;17.07;8.27;;;;;;;10.01;100.00;100977.41;5021203;28;20899;-78
2023/03/19 09:06:28;;;;;;;18.43;8.90;;;;;;;10.02;100.00;100981.72;5021411;28;20432;-78
2023/03/19 09:08:54;;;;;;;19.67;9.17;;;;;;;9.97;100.00;100978.25;5022546;28;20484;-78
2023/03/19 09:11:22;;;;;;;16.07;9.27;;;;;;;10.01;100.00;100973.88;5027307;28;20459;-78
2023/03/19 09:13:48;;;;;;;23.13;11.20;;;;;;;10.08;100.00;100966.22;5027824;28;20451;-79
2023/03/19 09:16:15;;;;;;;18.23;9.70;;;;;;;10.14;100.00;100965.06;5026007;28;20511;-78
2023/03/19 09:18:42;;;;;;;23.20;11.17;;;;;;;10.19;100.00;100962.31;5025686;28;20496;-78
2023/03/19 09:21:09;;;;;;;20.60;10.83;;;;;;;10.22;100.00;100959.00;5018450;28;20441;-77
2023/03/19 09:23:37;;;;;;;21.77;10.00;;;;;;;10.23;100.00;100957.94;5019053;28;20519;-78
2023/03/19 09:26:03;;;;;;;20.67;8.27;;;;;;;10.31;100.00;100951.91;5021750;28;20530;-79
2023/03/19 09:28:30;;;;;;;17.40;9.70;;;;;;;10.24;100.00;100962.28;5019517;28;20854;-79
2023/03/19 09:31:09;;;;;;;;;;;;;;;;;;;;;
2023/03/19 09:34:30;;;;;;;;;;;;;;;;;;;;;
2023/03/19 09:37:02;;;;;;;20.60;9.40;;;;;;;10.45;100.00;100951.19;4872425;29;20557;-79
2023/03/19 09:39:36;;;;;;;17.97;8.70;;;;;;;10.67;100.00;100948.72;4939429;29;20523;-79
2023/03/19 09:42:15;;;;;;;19.70;10.17;;;;;;;10.89;100.00;100950.84;4939016;29;20443;-79
2023/03/19 09:44:45;;;;;;;17.90;9.67;;;;;;;11.01;100.00;100958.50;4936616;29;20468;-79
2023/03/19 09:47:25;;;;;;;20.93;9.23;;;;;;;11.13;100.00;100961.59;4936262;29;20538;-78
2023/03/19 09:49:54;;;;;;;26.70;9.43;;;;;;;11.28;100.00;100963.22;4936986;29;20467;-78
2023/03/19 09:52:31;;;;;;;21.07;9.50;;;;;;;11.31;100.00;100957.22;4936635;29;20538;-78
2023/03/19 09:55:10;;;;;;;19.10;9.10;;;;;;;11.33;100.00;100955.84;4941658;29;20475;-78
2023/03/19 09:57:37;;;;;;;20.60;10.43;;;;;;;11.54;100.00;100960.91;4947712;29;20805;-79
2023/03/19 10:00:28;;;;;;;22.80;9.10;;;;;;;11.67;100.00;100951.97;4977975;28;20543;-79
2023/03/19 10:03:01;;;;;;;21.47;10.30;;;;;;;11.83;100.00;100952.56;5015855;28;20444;-79
2023/03/19 10:05:41;;;;;;;36.57;10.70;;;;;;;11.91;100.00;100959.16;5015946;28;20413;-79
2023/03/19 10:10:51;;;;;;;18.97;9.70;;;;;;;11.96;100.00;100956.38;5052413;28;20474;-67
2023/03/19 10:13:30;;;;;;;18.10;9.17;;;;;;;12.03;100.00;100962.19;5054490;28;20443;-66
2023/03/19 10:16:00;;;;;;;19.40;8.60;;;;;;;12.07;100.00;100963.22;5054365;28;20453;-66
2023/03/19 10:18:31;;;;;;;17.70;8.47;;;;;;;12.08;100.00;100957.47;5053737;28;20523;-66
2023/03/19 10:21:02;;;;;;;16.43;8.03;;;;;;;12.07;100.00;100960.50;5053953;28;20482;-66
2023/03/19 10:23:35;;;;;;;21.60;9.77;;;;;;;12.03;100.00;100957.56;5053831;28;20493;-66
2023/03/19 10:26:06;;;;;;;17.50;7.37;;;;;;;12.09;100.00;100966.44;5053782;28;20496;-66
2023/03/19 10:28:32;;;;;;;18.80;9.03;;;;;;;12.17;100.00;100971.16;5053941;28;20422;-66
2023/03/19 10:31:11;;;;;;;21.30;9.13;;;;;;;12.29;100.00;100974.16;5053756;28;20469;-66
2023/03/19 10:33:43;;;;;;;14.70;6.87;;;;;;;12.40;100.00;100977.50;5053356;28;20939;-66
2023/03/19 10:36:12;;;;;;;12.50;6.43;;;;;;;12.43;100.00;100976.06;5053816;28;20419;-66
2023/03/19 10:38:40;;;;;;;15.97;7.00;;;;;;;12.48;100.00;100967.81;5053346;28;20478;-66
2023/03/19 10:41:25;;;;;;;17.50;7.20;;;;;;;12.51;100.00;100967.22;5053371;28;20454;-66
2023/03/19 10:43:54;;;;;;;15.50;7.30;;;;;;;12.57;100.00;100968.69;5053770;28;20461;-66
2023/03/19 10:46:21;;;;;;;14.90;7.70;;;;;;;12.60;100.00;100970.81;5053375;28;20480;-65
2023/03/19 10:48:48;;;;;;;19.27;7.87;;;;;;;12.68;100.00;100967.38;5053294;28;20446;-66
2023/03/19 10:51:18;;;;;;;20.23;9.07;;;;;;;12.73;100.00;100978.13;5053378;28;20466;-66
2023/03/19 10:53:45;;;;;;;22.13;8.77;;;;;;;12.78;100.00;100983.44;5052745;28;20517;-66
2023/03/19 10:56:21;;;;;;;16.00;6.83;;;;;;;12.88;100.00;100985.13;5053091;28;20491;-66
2023/03/19 10:58:59;;;;;;;15.47;8.37;;;;;;;12.87;100.00;100984.34;5053040;28;20573;-66
2023/03/19 11:01:33;;;;;;;15.17;7.50;;;;;;;12.78;100.00;100994.31;5052887;28;20463;-66
2023/03/19 11:04:02;;;;;;;13.77;7.13;;;;;;;12.79;100.00;100990.53;5053064;28;20450;-65
2023/03/19 11:06:33;;;;;;;18.80;8.03;;;;;;;12.86;100.00;100992.81;5053283;28;20458;-66
2023/03/19 11:09:01;;;;;;;13.73;7.17;;;;;;;12.88;100.00;100987.84;5053201;28;20454;-66
2023/03/19 11:11:36;;;;;;;17.67;6.70;;;;;;;12.88;100.00;100991.41;5052953;28;20477;-66
2023/03/19 11:14:08;;;;;;;16.40;6.90;;;;;;;12.89;100.00;100986.75;5053357;28;20450;-66
2023/03/19 11:16:48;;;;;;;18.00;7.83;;;;;;;12.97;100.00;100983.31;5053028;28;20447;-66
2023/03/19 11:19:20;;;;;;;13.50;6.43;;;;;;;13.05;100.00;100981.75;5052807;28;20955;-66
2023/03/19 11:21:59;;;;;;;16.53;7.00;;;;;;;13.19;100.00;100982.50;5053158;28;20462;-66
2023/03/19 11:24:26;;;;;;;13.27;7.07;;;;;;;13.22;100.00;100981.09;5053009;28;20879;-66
2023/03/19 11:26:57;;;;;;;17.17;7.30;;;;;;;13.28;100.00;100986.16;5052919;28;20438;-66
2023/03/19 11:29:26;;;;;;;10.37;5.67;;;;;;;13.50;100.00;100989.97;5052923;28;20800;-66
2023/03/19 11:32:05;;;;;;;14.23;7.20;;;;;;;13.74;100.00;100981.47;5052839;28;20457;-66
2023/03/19 11:34:41;;;;;;;14.13;6.90;;;;;;;13.91;100.00;100987.00;5052872;28;20504;-66
2023/03/19 11:37:18;;;;;;;13.60;7.03;;;;;;;13.94;100.00;100988.28;5052827;28;20460;-66
2023/03/19 11:39:55;;;;;;;14.20;6.83;;;;;;;13.86;100.00;100982.50;5052584;28;20478;-66
2023/03/19 11:43:03;;;;;;;13.13;6.60;;;;;;;13.94;100.00;100991.00;5052962;28;20519;-66
2023/03/19 11:45:36;;;;;;;14.00;5.87;;;;;;;13.94;100.00;100982.84;5010980;28;21031;-66
2023/03/19 11:48:39;;;;;;;14.40;6.23;;;;;;;13.87;100.00;100986.81;5011741;28;20877;-66
2023/03/19 11:51:09;;;;;;;10.83;5.50;;;;;;;13.79;100.00;100981.31;5017709;28;20459;-66
2023/03/19 11:53:41;;;;;;;11.10;5.67;;;;;;;13.65;100.00;100986.06;5030617;28;20486;-67
2023/03/19 11:56:20;;;;;;;11.70;5.70;;;;;;;13.57;100.00;100985.69;5030583;28;20443;-66
2023/03/19 11:59:24;;;;;;;10.77;4.77;;;;;;;13.53;100.00;100990.16;5030478;28;20549;-67
2023/03/19 12:02:17;;;;;;;13.23;6.00;;;;;;;13.50;100.00;100993.50;5030511;28;20437;-66
2023/03/19 12:05:03;;;;;;;16.30;6.87;;;;;;;13.45;100.00;100996.31;5030479;28;20479;-67
2023/03/19 12:07:37;;;;;;;13.30;6.23;;;;;;;13.52;100.00;101001.34;5034276;28;20514;-67
2023/03/19 12:10:31;;;;;;;16.90;5.90;;;;;;;13.60;100.00;100985.06;5052367;28;20552;-66
2023/03/19 12:13:10;;;;;;;13.77;5.80;;;;;;;13.71;100.00;100996.50;5053874;28;20468;-66